createdAt,value
2017-07-29T00:00:38.319Z,6.40
2017-07-29T00:03:05.123Z,6.33
2017-07-29T00:05:31.898Z,6.57
2017-07-29T00:07:58.735Z,6.50
2017-07-29T00:10:25.616Z,5.73
2017-07-29T00:12:52.451Z,6.00
2017-07-29T00:15:19.216Z,5.83
2017-07-29T00:17:46.087Z,6.23
2017-07-29T00:20:12.931Z,6.13
2017-07-29T00:22:39.783Z,5.70
2017-07-29T00:25:07.440Z,6.00
2017-07-29T00:27:34.536Z,5.40
2017-07-29T00:30:01.375Z,5.47
2017-07-29T00:32:28.193Z,5.57
2017-07-29T00:34:54.962Z,5.90
2017-07-29T00:37:21.790Z,5.60
2017-07-29T00:39:48.602Z,5.67
2017-07-29T00:42:15.382Z,5.23
2017-07-29T00:44:42.195Z,5.30
2017-07-29T00:47:09.137Z,5.13
2017-07-29T00:49:35.947Z,5.80
2017-07-29T00:52:02.786Z,5.53
2017-07-29T00:54:29.597Z,5.47
2017-07-29T00:56:56.546Z,5.20
2017-07-29T00:59:23.310Z,5.43
2017-07-29T01:01:50.194Z,5.80
2017-07-29T01:04:17.130Z,4.53
2017-07-29T01:06:43.901Z,5.57
2017-07-29T01:09:10.696Z,4.70
2017-07-29T01:11:37.538Z,5.97
2017-07-29T01:14:04.291Z,5.43
2017-07-29T01:16:31.112Z,4.80
2017-07-29T01:18:57.982Z,4.37
2017-07-29T01:21:24.805Z,5.10
2017-07-29T01:23:51.692Z,5.20
2017-07-29T01:26:18.466Z,5.30
2017-07-29T01:28:45.240Z,5.10
2017-07-29T01:31:12.425Z,5.37
2017-07-29T01:33:39.192Z,5.40
2017-07-29T01:36:06.016Z,5.40
2017-07-29T01:38:33.621Z,4.83
2017-07-29T01:41:00.460Z,5.20
2017-07-29T01:43:27.233Z,4.93
2017-07-29T01:45:54.161Z,4.93
2017-07-29T01:48:21.004Z,5.27
2017-07-29T01:50:47.776Z,4.73
2017-07-29T01:53:14.688Z,5.23
2017-07-29T01:55:41.547Z,4.77
2017-07-29T01:58:08.366Z,4.70
2017-07-29T02:00:35.212Z,6.07
2017-07-29T02:03:01.988Z,6.73
2017-07-29T02:05:28.817Z,6.00
2017-07-29T02:07:55.648Z,6.30
2017-07-29T02:10:22.413Z,6.47
2017-07-29T02:12:49.256Z,6.57
2017-07-29T02:15:16.060Z,6.63
2017-07-29T02:17:43.099Z,7.40
2017-07-29T02:20:09.916Z,8.00
2017-07-29T02:22:36.769Z,7.30
2017-07-29T02:25:04.129Z,7.57
2017-07-29T02:27:30.887Z,7.43
2017-07-29T02:29:57.688Z,7.33
2017-07-29T02:32:24.468Z,7.70
2017-07-29T02:34:51.286Z,8.00
2017-07-29T02:37:18.136Z,7.60
2017-07-29T02:39:44.896Z,7.37
2017-07-29T02:42:11.668Z,7.70
2017-07-29T02:44:38.473Z,8.03
2017-07-29T02:47:05.320Z,7.30
2017-07-29T02:49:32.075Z,7.97
2017-07-29T02:51:58.871Z,7.27
2017-07-29T02:54:25.644Z,7.13
2017-07-29T02:56:52.482Z,7.80
2017-07-29T02:59:19.279Z,8.00
2017-07-29T03:01:46.044Z,7.97
2017-07-29T03:04:13.461Z,7.97
2017-07-29T03:06:40.311Z,6.97
2017-07-29T03:09:07.142Z,7.73
2017-07-29T03:11:33.907Z,7.80
2017-07-29T03:14:00.708Z,7.50
2017-07-29T03:16:27.489Z,7.60
2017-07-29T03:18:54.252Z,7.80
2017-07-29T03:21:21.101Z,7.20
2017-07-29T03:23:47.925Z,8.10
2017-07-29T03:26:15.400Z,8.10
2017-07-29T03:28:42.213Z,7.60
2017-07-29T03:31:08.972Z,7.03
2017-07-29T03:33:35.811Z,8.03
2017-07-29T03:36:02.614Z,7.93
2017-07-29T03:38:30.322Z,8.10
2017-07-29T03:40:57.175Z,8.17
2017-07-29T03:43:24.071Z,7.00
2017-07-29T03:45:50.878Z,7.80
2017-07-29T03:48:17.710Z,7.20
2017-07-29T03:50:44.538Z,6.80
2017-07-29T03:53:11.359Z,7.80
2017-07-29T03:55:38.195Z,7.00
2017-07-29T03:58:05.842Z,7.50
2017-07-29T04:00:33.242Z,7.57
2017-07-29T04:03:00.095Z,7.27
2017-07-29T04:05:26.943Z,7.10
2017-07-29T04:07:53.704Z,7.43
2017-07-29T04:10:20.482Z,7.30
2017-07-29T04:12:47.453Z,6.90
2017-07-29T04:15:14.285Z,7.60
2017-07-29T04:17:41.058Z,7.20
2017-07-29T04:20:07.888Z,8.30
2017-07-29T04:22:34.655Z,8.30
2017-07-29T04:25:01.421Z,7.83
2017-07-29T04:27:28.295Z,7.50
2017-07-29T04:29:55.127Z,8.20
2017-07-29T04:32:21.934Z,8.27
2017-07-29T04:34:48.814Z,8.07
2017-07-29T04:37:15.699Z,8.03
2017-07-29T04:39:42.535Z,8.67
2017-07-29T04:42:09.453Z,8.77
2017-07-29T04:44:36.395Z,8.67
2017-07-29T04:47:03.206Z,9.57
2017-07-29T04:49:31.196Z,9.00
2017-07-29T04:51:58.035Z,8.33
2017-07-29T04:54:24.890Z,8.70
2017-07-29T04:56:51.787Z,9.17
2017-07-29T04:59:18.983Z,8.23
2017-07-29T05:01:45.773Z,8.40
2017-07-29T05:04:12.648Z,8.30
2017-07-29T05:06:40.831Z,8.40
2017-07-29T05:09:07.660Z,7.93
2017-07-29T05:11:34.590Z,8.20
2017-07-29T05:14:01.452Z,7.67
2017-07-29T05:16:28.330Z,7.77
2017-07-29T05:18:55.283Z,7.80
2017-07-29T05:21:22.124Z,8.23
2017-07-29T05:23:48.927Z,8.97
2017-07-29T05:26:15.791Z,8.30
2017-07-29T05:28:42.556Z,8.83
2017-07-29T05:31:09.883Z,7.90
2017-07-29T05:33:36.772Z,7.80
2017-07-29T05:36:03.549Z,7.47
2017-07-29T05:38:30.391Z,7.73
2017-07-29T05:40:57.253Z,7.37
2017-07-29T05:43:24.086Z,7.93
2017-07-29T05:45:50.864Z,7.03
2017-07-29T05:48:17.736Z,6.70
2017-07-29T05:50:44.625Z,6.47
2017-07-29T05:53:11.435Z,6.03
2017-07-29T05:55:38.328Z,6.47
2017-07-29T05:58:05.101Z,6.40
2017-07-29T06:00:31.900Z,6.50
2017-07-29T06:02:59.491Z,6.40
2017-07-29T06:05:26.356Z,6.50
2017-07-29T06:07:53.179Z,6.30
2017-07-29T06:10:20.174Z,6.27
2017-07-29T06:12:47.052Z,5.23
2017-07-29T06:15:13.911Z,6.23
2017-07-29T06:17:41.127Z,5.67
2017-07-29T06:20:08.021Z,5.50
2017-07-29T06:22:34.832Z,4.80
2017-07-29T06:25:01.691Z,5.50
2017-07-29T06:27:28.552Z,5.27
2017-07-29T06:29:55.408Z,5.50
2017-07-29T06:32:22.323Z,5.40
2017-07-29T06:34:49.192Z,5.77
2017-07-29T06:37:15.977Z,6.10
2017-07-29T06:39:42.804Z,6.57
2017-07-29T06:42:09.702Z,5.60
2017-07-29T06:44:36.557Z,5.50
2017-07-29T06:47:03.460Z,4.97
2017-07-29T06:49:30.281Z,5.47
2017-07-29T06:51:57.047Z,4.60
2017-07-29T06:54:23.940Z,4.47
2017-07-29T06:56:50.779Z,4.17
2017-07-29T06:59:17.615Z,5.47
2017-07-29T07:01:44.500Z,4.70
2017-07-29T07:04:11.276Z,4.57
2017-07-29T07:06:38.977Z,3.87
2017-07-29T07:09:05.851Z,4.00
2017-07-29T07:11:32.624Z,4.63
2017-07-29T07:13:59.391Z,4.57
2017-07-29T07:16:26.189Z,4.47
2017-07-29T07:18:52.961Z,4.43
2017-07-29T07:21:19.729Z,4.60
2017-07-29T07:23:46.539Z,4.43
2017-07-29T07:26:13.391Z,3.80
2017-07-29T07:28:40.235Z,4.20
2017-07-29T07:31:07.093Z,4.07
2017-07-29T07:33:33.931Z,4.33
2017-07-29T07:36:00.751Z,4.53
2017-07-29T07:38:27.563Z,4.10
2017-07-29T07:40:54.335Z,3.83
2017-07-29T07:43:21.152Z,3.87
2017-07-29T07:45:47.964Z,3.80
2017-07-29T07:48:14.733Z,3.87
2017-07-29T07:50:41.502Z,4.13
2017-07-29T07:53:08.379Z,3.73
2017-07-29T07:55:35.147Z,3.70
2017-07-29T07:58:01.996Z,3.40
2017-07-29T08:00:28.880Z,3.10
2017-07-29T08:05:41.101Z,3.20
2017-07-29T08:08:07.961Z,3.20
2017-07-29T08:10:34.767Z,3.03
2017-07-29T08:13:01.624Z,3.10
2017-07-29T08:15:28.721Z,2.97
2017-07-29T08:17:55.526Z,3.10
2017-07-29T08:20:22.453Z,4.17
2017-07-29T08:22:49.311Z,4.20
2017-07-29T08:25:16.441Z,3.20
2017-07-29T08:27:43.286Z,2.60
2017-07-29T08:30:10.085Z,3.00
2017-07-29T08:32:36.961Z,2.80
2017-07-29T08:35:03.823Z,3.10
2017-07-29T08:37:30.710Z,2.93
2017-07-29T08:39:57.604Z,3.03
2017-07-29T08:42:24.460Z,2.90
2017-07-29T08:44:51.275Z,3.93
2017-07-29T08:47:18.129Z,4.00
2017-07-29T08:49:45.079Z,3.70
2017-07-29T08:52:12.862Z,3.23
2017-07-29T08:54:39.674Z,6.00
2017-07-29T08:57:06.595Z,4.40
2017-07-29T08:59:33.517Z,3.80
2017-07-29T09:02:00.464Z,4.07
2017-07-29T09:04:27.325Z,4.33
2017-07-29T09:06:54.773Z,4.30
2017-07-29T09:09:21.592Z,3.47
2017-07-29T09:11:48.473Z,3.20
2017-07-29T09:14:15.337Z,3.67
2017-07-29T09:16:42.154Z,3.63
2017-07-29T09:19:09.005Z,3.90
2017-07-29T09:21:35.814Z,3.30
2017-07-29T09:24:02.660Z,3.20
2017-07-29T09:26:29.544Z,2.63
2017-07-29T09:28:56.395Z,2.83
2017-07-29T09:31:23.202Z,2.70
2017-07-29T09:33:50.080Z,3.10
2017-07-29T09:36:17.274Z,2.87
2017-07-29T09:38:44.077Z,2.70
2017-07-29T09:41:10.964Z,3.10
2017-07-29T09:43:37.791Z,3.30
2017-07-29T09:46:04.685Z,2.93
2017-07-29T09:48:31.576Z,3.43
2017-07-29T09:50:58.384Z,3.37
2017-07-29T09:53:25.246Z,3.50
2017-07-29T09:55:52.181Z,3.40
2017-07-29T09:58:19.001Z,3.00
2017-07-29T10:00:45.797Z,2.90
2017-07-29T10:03:12.690Z,3.20
2017-07-29T10:05:39.568Z,3.77
2017-07-29T10:08:06.456Z,3.20
2017-07-29T10:10:33.357Z,2.90
2017-07-29T10:13:00.233Z,2.83
2017-07-29T10:15:27.120Z,2.50
2017-07-29T10:17:54.325Z,2.70
2017-07-29T10:20:21.197Z,2.60
2017-07-29T10:22:48.005Z,2.80
2017-07-29T10:25:14.843Z,2.60
2017-07-29T10:27:41.780Z,2.83
2017-07-29T10:30:08.584Z,3.03
2017-07-29T10:32:35.445Z,2.60
2017-07-29T10:35:02.245Z,2.80
2017-07-29T10:37:29.145Z,2.50
2017-07-29T10:39:56.059Z,2.70
2017-07-29T10:42:22.867Z,2.77
2017-07-29T10:44:49.669Z,2.63
2017-07-29T10:47:16.515Z,2.30
2017-07-29T10:49:43.388Z,2.63
2017-07-29T10:52:10.235Z,2.50
2017-07-29T10:54:37.128Z,2.30
2017-07-29T10:57:04.010Z,2.50
2017-07-29T10:59:30.813Z,2.77
2017-07-29T11:01:58.492Z,3.23
2017-07-29T11:04:25.298Z,2.90
2017-07-29T11:06:52.149Z,2.60
2017-07-29T11:09:19.006Z,2.70
2017-07-29T11:11:45.901Z,2.80
2017-07-29T11:14:12.705Z,2.77
2017-07-29T11:16:39.566Z,2.83
2017-07-29T11:19:06.378Z,3.40
2017-07-29T11:21:33.323Z,3.23
2017-07-29T11:24:00.269Z,2.90
2017-07-29T11:26:27.121Z,2.97
2017-07-29T11:28:54.310Z,3.67
2017-07-29T11:31:21.228Z,3.67
2017-07-29T11:33:48.688Z,3.17
2017-07-29T11:36:15.507Z,3.27
2017-07-29T11:38:42.420Z,3.20
2017-07-29T11:41:09.292Z,2.90
2017-07-29T11:43:36.104Z,3.20
2017-07-29T11:46:03.395Z,2.97
2017-07-29T11:48:31.158Z,3.00
2017-07-29T11:50:58.037Z,2.90
2017-07-29T11:53:24.894Z,2.90
2017-07-29T11:55:51.706Z,2.83
2017-07-29T11:58:18.581Z,2.97
2017-07-29T12:00:45.504Z,3.20
2017-07-29T12:03:12.404Z,2.53
2017-07-29T12:05:39.256Z,3.17
2017-07-29T12:08:06.113Z,3.30
2017-07-29T12:10:32.913Z,3.00
2017-07-29T12:12:59.741Z,3.20
2017-07-29T12:15:26.573Z,3.20
2017-07-29T12:17:53.453Z,3.07
2017-07-29T12:20:20.317Z,3.23
2017-07-29T12:22:47.199Z,3.63
2017-07-29T12:25:14.057Z,3.80
2017-07-29T12:27:40.900Z,2.80
2017-07-29T12:30:07.753Z,3.27
2017-07-29T12:32:34.613Z,3.03
2017-07-29T12:35:01.500Z,3.63
2017-07-29T12:37:28.390Z,3.30
2017-07-29T12:39:55.195Z,3.03
2017-07-29T12:42:22.075Z,2.73
2017-07-29T12:44:48.957Z,3.30
2017-07-29T12:47:15.881Z,2.90
2017-07-29T12:49:42.728Z,2.77
2017-07-29T12:52:09.564Z,2.93
2017-07-29T12:54:36.361Z,2.67
2017-07-29T12:57:03.245Z,2.50
2017-07-29T12:59:30.177Z,3.17
2017-07-29T13:01:57.025Z,2.60
2017-07-29T13:04:23.912Z,2.70
2017-07-29T13:06:50.849Z,2.60
2017-07-29T13:09:17.673Z,2.63
2017-07-29T13:11:44.504Z,2.70
2017-07-29T13:14:11.346Z,2.80
2017-07-29T13:16:38.145Z,2.97
2017-07-29T13:19:04.996Z,3.17
2017-07-29T13:21:31.900Z,2.80
2017-07-29T13:23:58.758Z,2.77
2017-07-29T13:26:25.564Z,3.00
2017-07-29T13:28:52.483Z,2.83
2017-07-29T13:31:19.306Z,2.90
2017-07-29T13:33:46.160Z,2.70
2017-07-29T13:36:13.132Z,2.73
2017-07-29T13:38:39.984Z,2.93
2017-07-29T13:41:06.921Z,2.70
2017-07-29T13:43:33.765Z,2.90
2017-07-29T13:46:00.656Z,2.83
2017-07-29T13:48:27.528Z,2.50
2017-07-29T13:50:54.519Z,3.17
2017-07-29T13:53:21.383Z,3.00
2017-07-29T13:55:48.186Z,2.90
2017-07-29T13:58:15.065Z,2.97
2017-07-29T14:00:41.936Z,3.27
2017-07-29T14:03:08.743Z,3.07
2017-07-29T14:05:35.581Z,2.60
2017-07-29T14:08:02.431Z,2.90
2017-07-29T14:10:29.397Z,3.23
2017-07-29T14:12:56.345Z,3.20
2017-07-29T14:15:23.195Z,2.83
2017-07-29T14:17:49.997Z,2.70
2017-07-29T14:20:16.921Z,2.90
2017-07-29T14:22:43.782Z,3.80
2017-07-29T14:25:10.673Z,4.00
2017-07-29T14:27:37.587Z,3.20
2017-07-29T14:30:04.473Z,2.90
2017-07-29T14:32:31.286Z,2.70
2017-07-29T14:34:58.128Z,3.13
2017-07-29T14:37:24.980Z,2.70
2017-07-29T14:39:51.835Z,2.90
2017-07-29T14:42:18.679Z,3.10
2017-07-29T14:44:45.531Z,2.80
2017-07-29T14:47:12.459Z,3.20
2017-07-29T14:49:39.417Z,3.23
2017-07-29T14:52:06.233Z,3.30
2017-07-29T14:54:33.091Z,3.20
2017-07-29T14:57:00.075Z,3.30
2017-07-29T14:59:27.002Z,2.90
2017-07-29T15:01:53.853Z,2.90
2017-07-29T15:04:20.808Z,3.40
2017-07-29T15:06:47.847Z,3.07
2017-07-29T15:09:14.846Z,3.10
2017-07-29T15:11:41.800Z,3.57
2017-07-29T15:17:16.128Z,3.27
2017-07-29T15:22:45.533Z,3.00
2017-07-29T15:28:18.969Z,3.00
2017-07-29T15:31:10.401Z,3.10
2017-07-29T15:33:40.182Z,3.03
2017-07-29T15:36:25.989Z,3.07
2017-07-29T15:38:52.983Z,2.83
2017-07-29T15:41:29.992Z,3.07
2017-07-29T15:44:00.872Z,3.20
2017-07-29T15:46:30.076Z,3.60
2017-07-29T15:49:00.219Z,3.60
2017-07-29T15:51:34.388Z,3.10
2017-07-29T15:54:01.273Z,3.43
2017-07-29T15:56:28.085Z,3.13
2017-07-29T15:58:54.980Z,3.50
2017-07-29T16:01:21.785Z,3.40
2017-07-29T16:03:48.663Z,4.27
2017-07-29T16:06:15.503Z,3.20
2017-07-29T16:08:42.379Z,3.37
2017-07-29T16:11:09.253Z,3.77
2017-07-29T16:13:36.145Z,3.60
2017-07-29T16:16:03.065Z,3.27
2017-07-29T16:18:29.928Z,3.47
2017-07-29T16:20:56.863Z,3.50
2017-07-29T16:23:23.737Z,4.20
2017-07-29T16:25:50.617Z,3.50
2017-07-29T16:28:17.461Z,4.20
2017-07-29T16:30:44.275Z,4.07
2017-07-29T16:33:11.129Z,4.90
2017-07-29T16:35:38.055Z,4.33
2017-07-29T16:38:04.964Z,3.60
2017-07-29T16:40:31.849Z,4.03
2017-07-29T16:42:58.684Z,4.00
2017-07-29T16:45:25.556Z,3.93
2017-07-29T16:47:52.484Z,3.87
2017-07-29T16:50:19.345Z,4.00
2017-07-29T16:52:46.274Z,4.13
2017-07-29T16:55:13.073Z,4.50
2017-07-29T16:57:40.055Z,4.10
2017-07-29T17:00:06.935Z,4.33
2017-07-29T17:02:34.651Z,41.57
2017-07-29T17:05:01.774Z,38.27
2017-07-29T17:07:28.821Z,45.57
2017-07-29T17:09:55.885Z,28.60
2017-07-29T17:12:23.632Z,21.23
2017-07-29T17:14:50.602Z,18.53
2017-07-29T17:17:17.692Z,14.43
2017-07-29T17:19:45.672Z,9.47
2017-07-29T17:22:16.229Z,6.50
2017-07-29T17:24:43.206Z,6.70
2017-07-29T17:27:10.104Z,7.00
2017-07-29T17:29:36.964Z,6.00
2017-07-29T17:32:03.770Z,5.63
2017-07-29T17:34:30.733Z,5.10
2017-07-29T17:36:57.548Z,5.73
2017-07-29T17:39:24.386Z,5.87
2017-07-29T17:41:51.274Z,5.33
2017-07-29T17:44:18.087Z,5.77
2017-07-29T17:46:44.899Z,5.60
2017-07-29T17:49:11.804Z,5.30
2017-07-29T17:51:38.681Z,6.07
2017-07-29T17:54:05.508Z,5.77
2017-07-29T17:56:32.492Z,6.13
2017-07-29T17:58:59.378Z,6.20
2017-07-29T18:01:26.369Z,6.07
2017-07-29T18:03:53.293Z,6.87
2017-07-29T18:06:20.106Z,6.50
2017-07-29T18:08:46.918Z,6.17
2017-07-29T18:11:13.837Z,6.83
2017-07-29T18:13:40.662Z,6.90
2017-07-29T18:16:07.477Z,5.83
2017-07-29T18:18:34.427Z,6.47
2017-07-29T18:21:01.324Z,5.67
2017-07-29T18:23:28.145Z,5.97
2017-07-29T18:25:55.016Z,6.37
2017-07-29T18:28:21.837Z,6.73
2017-07-29T18:30:48.688Z,6.17
2017-07-29T18:33:15.638Z,5.37
2017-07-29T18:35:42.532Z,6.60
2017-07-29T18:38:09.724Z,6.07
2017-07-29T18:40:36.716Z,6.33
2017-07-29T18:43:03.539Z,6.40
2017-07-29T18:45:30.363Z,6.50
2017-07-29T18:47:57.330Z,7.00
2017-07-29T18:50:24.259Z,6.93
2017-07-29T18:52:51.077Z,7.53
2017-07-29T18:55:17.936Z,6.47
2017-07-29T18:57:44.828Z,5.93
2017-07-29T19:00:11.716Z,5.77
2017-07-29T19:02:38.594Z,4.70
2017-07-29T19:05:05.475Z,5.20
2017-07-29T19:07:32.316Z,4.90
2017-07-29T19:09:59.188Z,5.10
2017-07-29T19:12:26.054Z,5.40
2017-07-29T19:14:52.941Z,100.33
2017-07-29T19:17:19.825Z,56.20
2017-07-29T19:19:47.280Z,15.13
2017-07-29T19:22:14.110Z,13.63
2017-07-29T19:24:40.997Z,14.03
2017-07-29T19:27:07.897Z,12.20
2017-07-29T19:29:34.711Z,9.13
2017-07-29T19:32:01.589Z,6.50
2017-07-29T19:34:29.356Z,5.83
2017-07-29T19:36:56.296Z,5.70
2017-07-29T19:39:23.212Z,5.63
2017-07-29T19:41:50.076Z,6.50
2017-07-29T19:44:16.936Z,6.17
2017-07-29T19:46:43.834Z,5.50
2017-07-29T19:49:10.645Z,6.27
2017-07-29T19:51:37.469Z,6.03
